< < Back
Terminal Aerodrome Forecast


Current Version              Previous Versions:   1  2  3  4  5  6  7  8  9  

Terminal Aerodrome Forecast

958
FTUS44 KMOB 221700 RRA
TAFPNS
TAF
KPNS 221749Z 2218/2318 15008KT P6SM VCTS SCT022CB BKN050 OVC070
      TEMPO 2220/2222 VRB15G25KT 1SM TSRA BR BKN025CB OVC035
     FM222200 18008KT P6SM VCTS SCT025CB BKN050 OVC250
      TEMPO 2222/2224 3SM -TSRA BR BKN025CB OVC035
     FM230100 VRB03KT P6SM SCT030 SCT250
     FM231500 13006KT P6SM SCT030 SCT250 PROB30 2315/2318 P6SM TS
      BKN030CB=



Latest METAR

537
SAUS70 KWBC 231000 RRC
MTRPNS
METAR KPNS 230953Z AUTO 00000KT 8SM SCT017 23/23 A3002 RMK AO2 SLP167
T02280228


USA.gov is the U.S. government's official web portal to all federal, state and local government web resources and services.